Time;durP1;ratioP1;P1;durP2;ratioP2;P2;SDS_P1;SDS_P2;PMS_P1;PMS_P2;Temp;Humidity;BMP_temperature;BMP_pressure;BME280_temperature;BME280_humidity;BME280_pressure;Samples;Min_cycle;Max_cycle;Signal;HPM_P1;HPM_P2
2022/08/20 00:02:09;;;;;;;;;;;;;;;26.50;61.07;99270.50;4422920;32;38620;-79
2022/08/20 00:04:40;;;;;;;;;;;;;;;26.63;59.91;99278.59;4423365;32;39997;-79
2022/08/20 00:07:07;;;;;;;;;;;;;;;26.64;59.79;99275.00;4414717;32;39978;-79
2022/08/20 00:09:37;;;;;;;;;;;;;;;26.53;60.80;99283.59;4410564;32;37588;-79
2022/08/20 00:12:05;;;;;;;;;;;;;;;26.54;60.42;99284.47;4414901;32;38355;-79
2022/08/20 00:14:33;;;;;;;;;;;;;;;26.55;60.11;99291.50;4414413;32;37795;-78
2022/08/20 00:17:01;;;;;;;;;;;;;;;26.50;60.25;99298.88;4414518;32;38332;-78
2022/08/20 00:19:28;;;;;;;;;;;;;;;26.44;60.65;99294.72;4414737;32;35701;-79
2022/08/20 00:21:56;;;;;;;;;;;;;;;26.58;59.87;99300.13;4426385;32;38833;-79
2022/08/20 00:24:24;;;;;;;;;;;;;;;26.58;59.89;99301.91;4410581;32;38001;-79
2022/08/20 00:26:52;;;;;;;;;;;;;;;26.51;60.34;99305.88;4422409;32;39021;-79
2022/08/20 00:29:19;;;;;;;;;;;;;;;26.43;60.56;99304.50;4417552;32;38119;-79
2022/08/20 00:31:49;;;;;;;;;;;;;;;26.39;60.22;99308.28;4422864;32;36880;-78
2022/08/20 00:34:16;;;;;;;;;;;;;;;26.41;60.28;99298.41;4426241;32;39869;-78
2022/08/20 00:36:44;;;;;;;;;;;;;;;26.41;60.81;99311.69;4423779;32;39325;-79
2022/08/20 00:39:11;;;;;;;;;;;;;;;26.39;61.10;99305.63;4421926;32;36582;-79
2022/08/20 00:41:39;;;;;;;;;;;;;;;26.50;60.23;99304.16;4413184;32;38824;-79
2022/08/20 00:44:10;;;;;;;;;;;;;;;26.48;60.23;99300.69;4414511;32;37950;-78
2022/08/20 00:46:38;;;;;;;;;;;;;;;26.30;61.04;99303.50;4415361;32;39314;-78
2022/08/20 00:49:16;;;;;;;;;;;;;;;26.39;60.84;99302.97;4421320;32;37024;-78
2022/08/20 00:51:45;;;;;;;;;;;;;;;26.41;60.84;99290.44;4414928;32;37981;-79
2022/08/20 00:54:15;;;;;;;;;;;;;;;26.32;61.34;99296.28;4114203;32;10001209;-78
2022/08/20 00:56:43;;;;;;;;;;;;;;;26.36;61.16;99281.91;4418860;32;20307;-78
2022/08/20 00:59:13;;;;;;;;;;;;;;;26.38;61.08;99281.81;4440912;32;38459;-79
2022/08/20 01:01:41;;;;;;;;;;;;;;;26.42;60.80;99289.53;4429970;32;37836;-79
2022/08/20 01:04:30;;;;;;;;;;;;;;;26.50;60.82;99282.94;4430357;32;39047;-78
2022/08/20 01:06:57;;;;;;;;;;;;;;;26.38;61.04;99285.31;4427980;32;38924;-79
2022/08/20 01:09:24;;;;;;;;;;;;;;;26.38;60.56;99285.31;4416549;32;38702;-78
2022/08/20 01:12:13;;;;;;;;;;;;;;;26.24;60.87;99285.25;4428924;32;37598;-78
2022/08/20 01:14:44;;;;;;;;;;;;;;;26.09;61.73;99291.44;4428497;32;38241;-78
2022/08/20 01:17:16;;;;;;;;;;;;;;;26.12;61.17;99288.62;4421842;32;38788;-79
2022/08/20 01:19:47;;;;;;;;;;;;;;;26.14;60.94;99286.75;4415790;32;39092;-79
2022/08/20 01:25:09;;;;;;;;;;;;;;;26.12;61.16;99278.00;4431156;32;38249;-79
2022/08/20 01:27:37;;;;;;;;;;;;;;;26.14;60.51;99270.81;4427090;32;37925;-79
2022/08/20 01:30:09;;;;;;;;;;;;;;;26.16;59.83;99269.78;4440746;32;38836;-79
2022/08/20 01:32:36;;;;;;;;;;;;;;;25.84;61.37;99278.69;4428770;32;36622;-79
2022/08/20 01:35:04;;;;;;;;;;;;;;;25.76;61.71;99260.53;4441391;32;36587;-78
2022/08/20 01:37:31;;;;;;;;;;;;;;;25.90;60.63;99250.03;4422073;32;39023;-78
2022/08/20 01:39:58;;;;;;;;;;;;;;;25.88;60.53;99243.97;4431096;32;38111;-79
2022/08/20 01:42:30;;;;;;;;;;;;;;;25.82;61.46;99249.62;4429622;32;36654;-78
2022/08/20 01:44:58;;;;;;;;;;;;;;;25.68;62.01;99255.66;4429906;32;39191;-79
2022/08/20 01:47:30;;;;;;;;;;;;;;;25.52;62.38;99252.97;4421455;32;38558;-78
2022/08/20 01:50:08;;;;;;;;;;;;;;;25.72;61.61;99248.41;4422442;32;38777;-79
2022/08/20 01:52:42;;;;;;;;;;;;;;;25.65;62.42;99249.66;4414477;32;36696;-78
2022/08/20 01:55:10;;;;;;;;;;;;;;;25.62;62.75;99257.78;4414757;32;38912;-79
2022/08/20 01:57:38;;;;;;;;;;;;;;;25.75;62.10;99253.53;4408736;32;38819;-78
2022/08/20 02:00:08;;;;;;;;;;;;;;;25.68;62.60;99250.34;4432481;32;39328;-79
2022/08/20 02:02:46;;;;;;;;;;;;;;;25.63;62.60;99254.22;4431305;32;36599;-78
2022/08/20 02:05:14;;;;;;;;;;;;;;;25.84;62.12;99234.47;4425538;32;38951;-79
2022/08/20 02:07:41;;;;;;;;;;;;;;;25.91;61.76;99227.91;4413703;32;37981;-79
2022/08/20 02:10:09;;;;;;;;;;;;;;;25.79;61.98;99228.56;4417364;32;38633;-78
2022/08/20 02:12:38;;;;;;;;;;;;;;;25.87;61.25;99221.03;4424455;32;36668;-78
2022/08/20 02:15:07;;;;;;;;;;;;;;;25.92;61.31;99213.69;4429462;32;38390;-79
2022/08/20 02:17:40;;;;;;;;;;;;;;;25.80;61.99;99235.56;4417158;32;37748;-79
2022/08/20 02:20:13;;;;;;;;;;;;;;;25.72;61.84;99237.81;4436758;32;38890;-78
2022/08/20 02:22:46;;;;;;;;;;;;;;;25.98;61.27;99229.25;4429436;32;37577;-78
2022/08/20 02:25:16;;;;;;;;;;;;;;;25.95;61.44;99234.72;4430645;32;37988;-78
2022/08/20 02:27:44;;;;;;;;;;;;;;;25.94;60.60;99224.19;4434618;32;38060;-79
2022/08/20 02:30:14;;;;;;;;;;;;;;;25.82;60.68;99223.13;4441775;32;39731;-79
2022/08/20 02:32:58;;;;;;;;;;;;;;;25.92;60.19;99240.22;4444514;32;37778;-78
2022/08/20 02:35:25;;;;;;;;;;;;;;;25.83;60.80;99248.69;4434925;32;39005;-78
2022/08/20 02:37:52;;;;;;;;;;;;;;;25.67;61.52;99256.59;4441114;32;38324;-79
2022/08/20 02:40:22;;;;;;;;;;;;;;;25.60;61.76;99265.84;4442021;32;38634;-78
2022/08/20 02:42:57;;;;;;;;;;;;;;;25.93;61.15;99268.44;4444545;32;38317;-78
2022/08/20 02:45:25;;;;;;;;;;;;;;;25.77;61.96;99264.88;4444225;32;38505;-79
2022/08/20 02:47:53;;;;;;;;;;;;;;;25.74;61.70;99257.97;4436024;32;38098;-79
2022/08/20 02:50:20;;;;;;;;;;;;;;;25.75;61.91;99259.69;4446155;32;38878;-78
2022/08/20 02:52:48;;;;;;;;;;;;;;;25.78;61.20;99258.62;4446265;32;36203;-78
2022/08/20 02:55:18;;;;;;;;;;;;;;;25.74;61.53;99262.41;4444544;32;37769;-78
2022/08/20 02:57:55;;;;;;;;;;;;;;;25.77;61.08;99264.88;4445532;32;37585;-78
2022/08/20 03:00:25;;;;;;;;;;;;;;;25.82;60.48;99270.84;4444693;32;39361;-78
2022/08/20 03:02:52;;;;;;;;;;;;;;;25.82;60.71;99272.62;4438205;32;37787;-78
2022/08/20 03:05:20;;;;;;;;;;;;;;;25.76;60.89;99279.09;4430562;32;37923;-79
2022/08/20 03:07:50;;;;;;;;;;;;;;;25.72;61.18;99291.69;4404057;32;37798;-79
2022/08/20 03:10:17;;;;;;;;;;;;;;;25.05;63.62;99327.91;4431622;32;38313;-78
2022/08/20 03:12:44;;;;;;;;;;;;;;;24.29;66.30;99366.09;4435798;32;36910;-79
2022/08/20 03:15:14;;;;;;;;;;;;;;;24.39;66.67;99364.72;4430933;32;38049;-79
2022/08/20 03:17:44;;;;;;;;;;;;;;;25.05;63.01;99354.38;4430505;32;38151;-79
2022/08/20 03:20:11;;;;;;;;;;;;;;;25.21;62.60;99348.31;4434449;32;39133;-79
2022/08/20 03:22:38;;;;;;;;;;;;;;;25.39;62.28;99355.28;4441007;32;36941;-79
2022/08/20 03:25:06;;;;;;;;;;;;;;;25.40;62.59;99349.06;4442680;32;39089;-79
2022/08/20 03:27:34;;;;;;;;;;;;;;;25.49;62.20;99359.19;4435509;32;37687;-79
2022/08/20 03:30:04;;;;;;;;;;;;;;;25.58;61.89;99378.19;4443312;32;39110;-79
2022/08/20 03:32:31;;;;;;;;;;;;;;;25.62;61.87;99374.41;4431749;32;36489;-78
2022/08/20 03:34:58;;;;;;;;;;;;;;;25.73;61.02;99361.47;4445587;32;38358;-78
2022/08/20 03:37:33;;;;;;;;;;;;;;;25.71;60.76;99363.31;4444857;32;37737;-80
2022/08/20 03:40:04;;;;;;;;;;;;;;;25.37;62.13;99369.59;4422350;32;39138;-79
2022/08/20 03:42:32;;;;;;;;;;;;;;;25.47;61.82;99355.75;4442972;32;36180;-79
2022/08/20 03:44:59;;;;;;;;;;;;;;;25.38;61.98;99366.84;4429571;32;38578;-79
2022/08/20 03:47:31;;;;;;;;;;;;;;;25.34;62.43;99360.00;4433186;32;38058;-79
2022/08/20 03:50:03;;;;;;;;;;;;;;;25.31;62.51;99360.16;4431088;32;38464;-79
2022/08/20 03:52:31;;;;;;;;;;;;;;;25.44;61.60;99361.22;4435588;32;37182;-79
2022/08/20 03:54:58;;;;;;;;;;;;;;;25.36;62.48;99355.44;4442208;32;38825;-79
2022/08/20 03:57:26;;;;;;;;;;;;;;;25.36;62.49;99346.66;4446083;32;38038;-79
2022/08/20 03:59:54;;;;;;;;;;;;;;;25.31;62.96;99344.25;4437596;32;37258;-79
2022/08/20 04:02:24;;;;;;;;;;;;;;;25.42;62.74;99356.94;4442033;32;37929;-79
2022/08/20 04:04:53;;;;;;;;;;;;;;;25.39;62.45;99352.63;4438507;32;38840;-79
2022/08/20 04:07:24;;;;;;;;;;;;;;;25.45;62.41;99362.06;4439875;32;39249;-79
2022/08/20 04:09:55;;;;;;;;;;;;;;;25.34;62.33;99360.00;4424696;32;39425;-79
2022/08/20 04:12:22;;;;;;;;;;;;;;;25.37;62.11;99354.53;4441141;32;37432;-79
2022/08/20 04:14:50;;;;;;;;;;;;;;;25.35;62.28;99345.78;4440459;32;38198;-78
2022/08/20 04:17:20;;;;;;;;;;;;;;;25.40;62.07;99327.88;4445381;32;39295;-78
2022/08/20 04:19:48;;;;;;;;;;;;;;;25.29;62.66;99311.69;4444475;32;38306;-78
2022/08/20 04:22:15;;;;;;;;;;;;;;;25.41;62.44;99302.22;4436487;32;36809;-79
2022/08/20 04:24:43;;;;;;;;;;;;;;;25.27;63.12;99308.25;4445565;32;38210;-79
2022/08/20 04:27:10;;;;;;;;;;;;;;;25.31;63.17;99301.88;4436048;32;37990;-79
2022/08/20 04:29:41;;;;;;;;;;;;;;;25.11;63.97;99315.25;4432544;32;39116;-79
2022/08/20 04:32:09;;;;;;;;;;;;;;;25.16;63.96;99319.41;4435389;32;37104;-79
2022/08/20 04:34:36;;;;;;;;;;;;;;;24.55;66.55;99319.88;4438339;32;37782;-79
2022/08/20 04:37:03;;;;;;;;;;;;;;;24.87;65.31;99312.94;4444794;32;38342;-79
2022/08/20 04:39:31;;;;;;;;;;;;;;;25.21;64.14;99312.09;4442363;32;38769;-79
2022/08/20 04:41:58;;;;;;;;;;;;;;;25.09;64.56;99322.44;4438195;32;36550;-79
2022/08/20 04:44:26;;;;;;;;;;;;;;;25.18;64.31;99324.66;4443387;32;39172;-79
2022/08/20 04:46:53;;;;;;;;;;;;;;;25.08;64.43;99315.41;4439481;32;38911;-79
2022/08/20 04:49:25;;;;;;;;;;;;;;;25.15;64.24;99311.56;4433968;32;39749;-79
2022/08/20 04:51:53;;;;;;;;;;;;;;;25.40;63.54;99309.31;4441398;32;37387;-80
2022/08/20 04:54:21;;;;;;;;;;;;;;;25.54;62.97;99313.03;4438924;32;39601;-79
2022/08/20 04:56:48;;;;;;;;;;;;;;;25.47;62.89;99326.59;4453241;32;37775;-79
2022/08/20 04:59:15;;;;;;;;;;;;;;;25.02;64.10;99338.66;4442166;32;38306;-79
2022/08/20 05:01:44;;;;;;;;;;;;;;;25.39;63.25;99339.38;4436275;32;36406;-80
2022/08/20 05:04:11;;;;;;;;;;;;;;;25.57;62.83;99337.56;4439856;32;37746;-78
2022/08/20 05:06:40;;;;;;;;;;;;;;;25.47;63.51;99350.44;4435419;32;38014;-78
2022/08/20 05:09:07;;;;;;;;;;;;;;;25.46;63.87;99348.75;4429513;32;38259;-78
2022/08/20 05:11:34;;;;;;;;;;;;;;;25.61;62.78;99336.47;4431684;32;36709;-77
2022/08/20 05:14:07;;;;;;;;;;;;;;;25.57;63.37;99334.06;4438358;32;37953;-77
2022/08/20 05:16:39;;;;;;;;;;;;;;;25.69;62.73;99322.81;4445297;32;39750;-77
2022/08/20 05:19:08;;;;;;;;;;;;;;;25.65;63.15;99337.13;4442524;32;38564;-77
2022/08/20 05:21:36;;;;;;;;;;;;;;;25.71;62.59;99336.81;4438296;32;37583;-78
2022/08/20 05:24:04;;;;;;;;;;;;;;;25.85;61.54;99333.47;4429175;32;37768;-78
2022/08/20 05:26:32;;;;;;;;;;;;;;;25.76;62.31;99345.37;4433728;32;38821;-79
2022/08/20 05:28:59;;;;;;;;;;;;;;;25.83;62.35;99333.53;4440408;32;38503;-79
2022/08/20 05:31:27;;;;;;;;;;;;;;;25.84;62.26;99337.03;4443069;32;37771;-78
2022/08/20 05:33:59;;;;;;;;;;;;;;;25.91;61.95;99333.97;4443238;32;37108;-80
2022/08/20 05:36:27;;;;;;;;;;;;;;;25.92;61.64;99322.41;4438198;32;38228;-79
2022/08/20 05:38:57;;;;;;;;;;;;;;;26.04;62.14;99322.66;4438659;32;38186;-80
2022/08/20 05:41:24;;;;;;;;;;;;;;;26.12;62.30;99320.44;4437262;32;36310;-81
2022/08/20 05:43:56;;;;;;;;;;;;;;;26.09;62.17;99320.63;4441941;32;37867;-81
2022/08/20 05:46:24;;;;;;;;;;;;;;;26.00;63.02;99319.31;4434604;32;37372;-80
2022/08/20 05:48:51;;;;;;;;;;;;;;;26.17;60.94;99315.75;4437799;32;38266;-80
2022/08/20 05:51:18;;;;;;;;;;;;;;;26.16;61.13;99316.66;4441795;32;36774;-80
2022/08/20 05:53:46;;;;;;;;;;;;;;;26.12;61.77;99323.09;4437322;32;38654;-80
2022/08/20 05:56:13;;;;;;;;;;;;;;;26.24;61.51;99330.37;4442780;32;37686;-80
2022/08/20 05:58:40;;;;;;;;;;;;;;;26.27;61.37;99335.50;4441488;32;39671;-80
2022/08/20 06:01:09;;;;;;;;;;;;;;;26.08;62.02;99324.22;4437372;32;36573;-78
2022/08/20 06:06:22;;;;;;;;;;;;;;;26.17;61.65;99321.91;4435371;32;38875;-78
2022/08/20 06:09:10;;;;;;;;;;;;;;;26.35;60.59;99301.41;4428700;32;38548;-78
2022/08/20 06:11:37;;;;;;;;;;;;;;;26.32;61.42;99301.59;4428403;32;37424;-79
2022/08/20 06:14:04;;;;;;;;;;;;;;;25.81;64.32;99338.06;4432858;32;39299;-79
2022/08/20 06:16:32;;;;;;;;;;;;;;;25.64;64.31;99335.44;4442387;32;38981;-79
2022/08/20 06:18:59;;;;;;;;;;;;;;;26.09;61.65;99310.00;4442500;32;39424;-78
2022/08/20 06:21:29;;;;;;;;;;;;;;;25.55;64.82;99320.03;4436805;32;37322;-79
2022/08/20 06:23:57;;;;;;;;;;;;;;;25.76;64.25;99329.47;4431146;32;37956;-79
2022/08/20 06:26:28;;;;;;;;;;;;;;;25.74;64.07;99331.34;4445809;32;37741;-79
2022/08/20 06:29:00;;;;;;;;;;;;;;;25.86;63.96;99338.66;4439743;32;38200;-81
2022/08/20 06:31:27;;;;;;;;;;;;;;;26.07;62.61;99343.72;4441727;32;36405;-80
2022/08/20 06:33:54;;;;;;;;;;;;;;;26.11;61.90;99350.59;4446256;32;38015;-79
2022/08/20 06:36:22;;;;;;;;;;;;;;;26.40;60.38;99364.84;4446217;32;39236;-80
2022/08/20 06:38:49;;;;;;;;;;;;;;;26.15;60.76;99376.00;4436257;32;38989;-80
2022/08/20 06:41:16;;;;;;;;;;;;;;;26.15;60.69;99403.38;4445674;32;36698;-78
2022/08/20 06:43:45;;;;;;;;;;;;;;;26.07;61.30;99402.94;4437332;32;38364;-80
2022/08/20 06:46:13;;;;;;;;;;;;;;;26.26;60.59;99386.88;4443119;32;38189;-79
2022/08/20 06:48:40;;;;;;;;;;;;;;;26.25;60.46;99379.84;4439039;32;39110;-80
2022/08/20 06:51:09;;;;;;;;;;;;;;;26.56;60.07;99383.47;4439971;32;36642;-82
2022/08/20 06:53:39;;;;;;;;;;;;;;;26.28;61.46;99392.94;4430336;32;39190;-81
2022/08/20 06:56:07;;;;;;;;;;;;;;;26.21;63.97;99411.00;4431151;32;37981;-83
2022/08/20 06:58:35;;;;;;;;;;;;;;;26.33;61.84;99409.47;4429381;32;38342;-80
2022/08/20 07:01:09;;;;;;;;;;;;;;;26.62;60.57;99420.28;4440167;32;37374;-77
2022/08/20 07:03:41;;;;;;;;;;;;;;;26.71;59.77;99425.06;4442839;32;37790;-78
2022/08/20 07:06:24;;;;;;;;;;;;;;;26.77;59.58;99424.72;4442340;32;39025;-77
2022/08/20 07:08:55;;;;;;;;;;;;;;;26.75;59.68;99431.06;4442298;32;38620;-77
2022/08/20 07:11:22;;;;;;;;;;;;;;;26.68;59.90;99430.56;4435201;32;36570;-77
2022/08/20 07:13:55;;;;;;;;;;;;;;;26.58;60.49;99435.53;4436561;32;38044;-75
2022/08/20 07:16:23;;;;;;;;;;;;;;;26.51;60.62;99422.66;4436917;32;38449;-75
2022/08/20 07:18:50;;;;;;;;;;;;;;;26.63;60.99;99424.63;4437653;32;38790;-76
2022/08/20 07:21:17;;;;;;;;;;;;;;;26.75;60.34;99429.25;4440189;32;37713;-76
2022/08/20 07:23:47;;;;;;;;;;;;;;;26.79;60.35;99433.44;4428745;32;37655;-76
2022/08/20 07:26:15;;;;;;;;;;;;;;;26.70;61.14;99431.31;4423018;32;38215;-76
2022/08/20 07:28:42;;;;;;;;;;;;;;;26.65;61.13;99441.34;4429206;32;39411;-77
2022/08/20 07:33:57;;;;;;;;;;;;;;;26.80;60.61;99451.09;4428967;32;37934;-78
2022/08/20 07:36:25;;;;;;;;;;;;;;;26.63;60.98;99453.84;4431711;32;38851;-81
2022/08/20 07:38:53;;;;;;;;;;;;;;;26.49;61.83;99472.34;4444506;32;38216;-84
2022/08/20 07:41:20;;;;;;;;;;;;;;;26.57;61.46;99486.91;4435796;32;36980;-80
2022/08/20 07:43:47;;;;;;;;;;;;;;;26.41;62.03;99497.47;4417750;32;37741;-79
2022/08/20 07:46:17;;;;;;;;;;;;;;;26.32;62.34;99492.66;4410215;32;39402;-77
2022/08/20 07:48:48;;;;;;;;;;;;;;;26.28;62.09;99507.03;4399694;32;38846;-80
2022/08/20 07:51:17;;;;;;;;;;;;;;;26.28;62.07;99512.34;4405442;32;36739;-80
2022/08/20 07:53:45;;;;;;;;;;;;;;;24.80;66.47;99518.06;4397401;32;37872;-79
2022/08/20 07:56:14;;;;;;;;;;;;;;;25.16;64.86;99526.03;4401295;32;38008;-79
2022/08/20 07:58:48;;;;;;;;;;;;;;;24.62;64.15;99537.44;4397677;32;38576;-79
2022/08/20 08:01:17;;;;;;;;;;;;;;;24.88;63.94;99557.38;4398090;32;36641;-78
2022/08/20 08:03:45;;;;;;;;;;;;;;;25.45;63.07;99569.63;4401043;32;38083;-79
2022/08/20 08:06:20;;;;;;;;;;;;;;;25.49;63.05;99575.63;4375789;32;36755;-76
2022/08/20 08:08:58;;;;;;;;;;;;;;;25.76;60.96;99578.72;4414306;32;38965;-80
2022/08/20 08:11:25;;;;;;;;;;;;;;;25.66;62.09;99569.50;4397225;32;37001;-77
2022/08/20 08:13:53;;;;;;;;;;;;;;;25.74;61.59;99544.31;4397426;32;37880;-82
2022/08/20 08:16:20;;;;;;;;;;;;;;;25.80;61.45;99540.50;4398164;32;38164;-80
2022/08/20 08:18:49;;;;;;;;;;;;;;;25.50;62.44;99556.16;4397114;32;39925;-77
2022/08/20 08:21:17;;;;;;;;;;;;;;;25.48;62.54;99558.03;4410278;32;36887;-78
2022/08/20 08:23:44;;;;;;;;;;;;;;;25.62;62.21;99541.41;4409973;32;38048;-79
2022/08/20 08:26:12;;;;;;;;;;;;;;;25.73;61.22;99539.94;4403666;32;38063;-84
2022/08/20 08:28:45;;;;;;;;;;;;;;;25.62;61.91;99530.81;4412351;32;40357;-83
2022/08/20 08:31:13;;;;;;;;;;;;;;;25.50;62.22;99541.13;4402100;32;36398;-81
2022/08/20 08:33:40;;;;;;;;;;;;;;;25.55;62.01;99540.03;4403133;32;37991;-80
2022/08/20 08:36:09;;;;;;;;;;;;;;;25.61;61.38;99551.19;4399072;32;39045;-82
2022/08/20 08:38:37;;;;;;;;;;;;;;;25.63;61.86;99551.13;4398536;32;38393;-86
2022/08/20 08:41:13;;;;;;;;;;;;;;;25.68;61.96;99538.47;4400440;32;37466;-86
2022/08/20 08:43:41;;;;;;;;;;;;;;;25.65;62.46;99528.00;4406309;32;38302;-80
2022/08/20 08:46:09;;;;;;;;;;;;;;;25.62;62.74;99501.66;4405883;32;38135;-86
2022/08/20 08:48:42;;;;;;;;;;;;;;;25.57;62.81;99482.50;4395210;32;38387;-82
2022/08/20 08:51:11;;;;;;;;;;;;;;;25.44;63.44;99487.56;4415767;32;38077;-81
2022/08/20 08:53:58;;;;;;;;;;;;;;;25.41;63.01;99472.69;4382762;32;36593;-82
2022/08/20 08:56:33;;;;;;;;;;;;;;;25.58;62.20;99473.59;4403239;32;38326;-81
2022/08/20 08:59:04;;;;;;;;;;;;;;;25.50;62.44;99489.91;4393957;32;39063;-81
2022/08/20 09:01:33;;;;;;;;;;;;;;;25.25;62.63;99495.59;4396531;32;36722;-80
2022/08/20 09:04:23;;;;;;;;;;;;;;;25.24;62.80;99480.63;4396049;32;37983;-82
2022/08/20 09:06:53;;;;;;;;;;;;;;;25.21;62.79;99467.53;4391426;32;37920;-79
2022/08/20 09:09:22;;;;;;;;;;;;;;;25.34;62.85;99465.97;4397238;32;38180;-84
2022/08/20 09:11:51;;;;;;;;;;;;;;;25.51;62.20;99467.75;4386442;32;36910;-86
2022/08/20 09:14:19;;;;;;;;;;;;;;;25.45;62.40;99468.06;4399282;32;38740;-81
2022/08/20 09:16:47;;;;;;;;;;;;;;;25.26;63.28;99476.09;4397216;32;37256;-83
2022/08/20 09:19:20;;;;;;;;;;;;;;;25.40;62.21;99502.78;4397742;32;38357;-88
2022/08/20 09:21:47;;;;;;;;;;;;;;;25.50;61.76;99524.38;4408069;32;37020;-79
2022/08/20 09:24:14;;;;;;;;;;;;;;;25.66;60.86;99532.41;4398887;32;39302;-78
2022/08/20 09:26:42;;;;;;;;;;;;;;;25.38;61.85;99541.72;4394556;32;36880;-82
2022/08/20 09:29:09;;;;;;;;;;;;;;;25.44;62.42;99535.28;4418466;32;38085;-81
2022/08/20 09:31:36;;;;;;;;;;;;;;;25.35;62.12;99528.63;4424797;32;36558;-84
2022/08/20 09:34:05;;;;;;;;;;;;;;;25.37;62.59;99524.12;4426793;32;37831;-83
2022/08/20 09:36:32;;;;;;;;;;;;;;;25.27;62.58;99513.13;4411389;32;38945;-79
2022/08/20 09:39:00;;;;;;;;;;;;;;;25.20;62.40;99510.84;4437701;32;38346;-77
2022/08/20 09:41:30;;;;;;;;;;;;;;;25.37;60.98;99526.78;4439612;32;37133;-78
2022/08/20 09:44:01;;;;;;;;;;;;;;;25.24;61.14;99533.63;4429844;32;38577;-85
2022/08/20 09:46:28;;;;;;;;;;;;;;;25.24;61.04;99533.63;4439874;32;36044;-81
2022/08/20 09:48:55;;;;;;;;;;;;;;;25.15;61.17;99523.47;4420497;32;38267;-82
2022/08/20 09:51:23;;;;;;;;;;;;;;;25.13;61.24;99523.53;4426417;32;37543;-83
2022/08/20 09:53:50;;;;;;;;;;;;;;;25.04;61.71;99508.91;4424660;32;39012;-89
2022/08/20 09:56:17;;;;;;;;;;;;;;;25.07;62.25;99484.06;4427496;32;38277;-85
2022/08/20 09:58:46;;;;;;;;;;;;;;;25.19;62.01;99467.59;4427525;32;38304;-88
2022/08/20 10:01:14;;;;;;;;;;;;;;;25.09;62.54;99454.88;4404567;32;37275;-86
2022/08/20 10:03:43;;;;;;;;;;;;;;;25.08;62.42;99424.00;4422696;32;36651;-86
2022/08/20 10:06:13;;;;;;;;;;;;;;;25.00;63.11;99419.94;4428720;32;40190;-85
2022/08/20 10:08:41;;;;;;;;;;;;;;;24.93;62.74;99409.75;4428579;32;39154;-81
2022/08/20 10:11:09;;;;;;;;;;;;;;;25.10;61.69;99398.31;4423417;32;37358;-81
2022/08/20 10:13:36;;;;;;;;;;;;;;;25.12;61.30;99385.84;4418388;32;39047;-84
2022/08/20 10:16:03;;;;;;;;;;;;;;;25.05;61.32;99372.91;4427106;32;39229;-82
2022/08/20 10:18:31;;;;;;;;;;;;;;;25.23;61.32;99367.63;4429616;32;38445;-81
2022/08/20 10:20:58;;;;;;;;;;;;;;;25.41;61.60;99355.22;4430182;32;36812;-89
2022/08/20 10:23:25;;;;;;;;;;;;;;;25.43;62.41;99348.91;4426139;32;37843;-87
2022/08/20 10:25:53;;;;;;;;;;;;;;;25.61;61.63;99348.84;4423471;32;38200;-81
2022/08/20 10:28:20;;;;;;;;;;;;;;;25.36;64.56;99358.09;4419078;32;38864;-87
2022/08/20 10:30:47;;;;;;;;;;;;;;;25.35;63.67;99377.59;4430300;32;36585;-88
2022/08/20 10:33:15;;;;;;;;;;;;;;;24.94;67.70;99377.88;4429788;32;39077;-81
2022/08/20 10:35:42;;;;;;;;;;;;;;;24.86;66.22;99390.66;4429151;32;39277;-85
2022/08/20 10:38:09;;;;;;;;;;;;;;;25.33;63.57;99398.00;4403034;32;39253;-86
2022/08/20 10:40:37;;;;;;;;;;;;;;;25.32;64.25;99436.03;4425983;32;37648;-87
2022/08/20 10:43:04;;;;;;;;;;;;;;;25.76;61.27;99456.75;4404697;32;37066;-90
2022/08/20 10:45:32;;;;;;;;;;;;;;;25.97;62.27;99455.66;4424151;32;37856;-85
2022/08/20 10:48:00;;;;;;;;;;;;;;;26.01;63.06;99456.34;4414258;32;39038;-85
2022/08/20 10:50:27;;;;;;;;;;;;;;;26.26;63.39;99461.19;4428521;32;37433;-82
2022/08/20 10:52:57;;;;;;;;;;;;;;;26.18;62.33;99452.75;4401988;32;37822;-80
2022/08/20 10:55:25;;;;;;;;;;;;;;;26.38;62.72;99455.16;4411391;32;37943;-85
2022/08/20 10:57:52;;;;;;;;;;;;;;;26.42;60.75;99459.37;4412433;32;37283;-82
2022/08/20 11:00:19;;;;;;;;;;;;;;;26.53;60.92;99465.94;4424465;32;36543;-81
2022/08/20 11:02:47;;;;;;;;;;;;;;;26.66;60.30;99474.91;4426768;32;39449;-81
2022/08/20 11:05:14;;;;;;;;;;;;;;;26.83;59.80;99482.78;4427078;32;38025;-81
2022/08/20 11:07:42;;;;;;;;;;;;;;;26.89;60.02;99477.13;4420472;32;37504;-83
2022/08/20 11:10:27;;;;;;;;;;;;;;;26.98;59.80;99485.50;4425689;32;36768;-82
2022/08/20 11:12:55;;;;;;;;;;;;;;;27.02;59.72;99481.72;4415941;32;36577;-82
2022/08/20 11:15:22;;;;;;;;;;;;;;;27.04;58.36;99480.69;4426989;32;37927;-80
2022/08/20 11:17:50;;;;;;;;;;;;;;;27.13;58.48;99481.97;4439660;32;38331;-81
2022/08/20 11:20:18;;;;;;;;;;;;;;;27.27;58.26;99476.72;4433280;32;36487;-78
2022/08/20 11:22:49;;;;;;;;;;;;;;;27.19;57.56;99479.00;4436433;32;37991;-82
2022/08/20 11:25:17;;;;;;;;;;;;;;;27.19;57.53;99481.66;4443568;32;38319;-78
2022/08/20 11:27:47;;;;;;;;;;;;;;;27.38;55.98;99473.47;4439000;32;38975;-80
2022/08/20 11:30:16;;;;;;;;;;;;;;;27.73;55.05;99483.78;4436896;32;36695;-78
2022/08/20 11:32:44;;;;;;;;;;;;;;;27.67;56.50;99489.47;4441808;32;38975;-80
2022/08/20 11:35:12;;;;;;;;;;;;;;;27.68;57.25;99485.88;4435432;32;38539;-77
2022/08/20 11:38:07;;;;;;;;;;;;;;;27.84;57.02;99472.53;4426878;32;38116;-81
2022/08/20 11:40:45;;;;;;;;;;;;;;;27.82;57.28;99469.94;4435266;32;37737;-79
2022/08/20 11:43:14;;;;;;;;;;;;;;;27.48;58.55;99464.00;4445044;32;37461;-81
2022/08/20 11:45:46;;;;;;;;;;;;;;;27.80;57.07;99462.06;4411623;32;37732;-80
2022/08/20 11:48:14;;;;;;;;;;;;;;;27.87;56.91;99464.34;4437292;32;39456;-84
2022/08/20 11:50:42;;;;;;;;;;;;;;;27.81;57.08;99461.13;4440515;32;36093;-78
2022/08/20 11:53:11;;;;;;;;;;;;;;;27.63;56.79;99451.56;4430137;32;38286;-78
2022/08/20 11:55:43;;;;;;;;;;;;;;;27.77;55.11;99448.09;4442743;32;38162;-83
2022/08/20 11:58:14;;;;;;;;;;;;;;;27.95;54.46;99440.78;4424178;32;49331;-87
2022/08/20 12:00:41;;;;;;;;;;;;;;;27.71;54.95;99437.81;4415387;32;36573;-81
2022/08/20 12:03:09;;;;;;;;;;;;;;;27.94;55.62;99441.75;4427786;32;38285;-87
2022/08/20 12:05:39;;;;;;;;;;;;;;;27.95;55.10;99440.78;4405533;32;37909;-87
2022/08/20 12:08:07;;;;;;;;;;;;;;;28.08;54.84;99441.75;4436411;32;38433;-83
2022/08/20 12:10:35;;;;;;;;;;;;;;;27.94;53.70;99439.94;4425100;32;36451;-80
2022/08/20 12:13:06;;;;;;;;;;;;;;;28.04;53.62;99434.88;4397619;32;37597;-82
2022/08/20 12:15:34;;;;;;;;;;;;;;;27.81;53.81;99429.19;4427420;32;39498;-81
2022/08/20 12:18:08;;;;;;;;;;;;;;;27.85;52.54;99426.34;4412144;32;37693;-79
2022/08/20 12:20:36;;;;;;;;;;;;;;;28.05;53.31;99420.66;4416121;32;36625;-82
2022/08/20 12:23:04;;;;;;;;;;;;;;;27.95;54.80;99419.50;4413929;32;38547;-84
2022/08/20 12:25:31;;;;;;;;;;;;;;;27.79;53.32;99416.94;4424154;32;37564;-86
2022/08/20 12:27:59;;;;;;;;;;;;;;;27.88;55.13;99412.84;4409329;32;37142;-87
2022/08/20 12:30:27;;;;;;;;;;;;;;;28.04;54.00;99408.28;4426632;32;37313;-86
2022/08/20 12:32:54;;;;;;;;;;;;;;;28.13;54.81;99401.53;4429344;32;37564;-85
2022/08/20 12:35:22;;;;;;;;;;;;;;;28.19;54.53;99388.69;4428706;32;37907;-81
2022/08/20 12:37:49;;;;;;;;;;;;;;;27.84;53.85;99393.56;4426817;32;38925;-77
2022/08/20 12:40:19;;;;;;;;;;;;;;;27.69;53.42;99390.00;4422192;32;37269;-80
2022/08/20 12:43:05;;;;;;;;;;;;;;;27.93;54.66;99389.50;4417165;32;37580;-83
2022/08/20 12:45:32;;;;;;;;;;;;;;;27.79;54.07;99372.59;4417710;32;38681;-80
2022/08/20 12:48:19;;;;;;;;;;;;;;;27.67;54.32;99365.34;4395957;32;37989;-80
2022/08/20 12:50:48;;;;;;;;;;;;;;;27.79;55.27;99367.28;4415356;32;37651;-84
2022/08/20 12:53:16;;;;;;;;;;;;;;;27.94;55.59;99359.25;4426827;32;37836;-84
2022/08/20 12:55:46;;;;;;;;;;;;;;;28.09;56.38;99355.63;4419092;32;38029;-84
2022/08/20 12:58:15;;;;;;;;;;;;;;;28.11;56.05;99345.75;4421914;32;38174;-81
2022/08/20 13:00:43;;;;;;;;;;;;;;;28.03;56.30;99340.06;4421698;32;36892;-79
2022/08/20 13:03:17;;;;;;;;;;;;;;;28.18;55.64;99335.56;4427083;32;38274;-81
2022/08/20 13:05:44;;;;;;;;;;;;;;;28.03;56.94;99337.41;4422308;32;38951;-81